ADDS METAR Data INFO
IDs: Format: Raw Decoded Include TAF

Data at: 1149 UTC 23 Jun 2018

KBHK 231051Z AUTO 26009KT 10SM CLR 14/14 A2975 RMK AO2 SLP060 T01440144
KBHK 230951Z AUTO 26008KT 10SM CLR 14/14 A2975 RMK AO2 SLP061 T01390139
KBHK 230851Z AUTO 26009KT 10SM CLR 14/14 A2975 RMK AO2 SLP061 T01440144 56011
KBHK 230751Z AUTO 26006KT 10SM CLR 14/14 A2975 RMK AO2 SLP055 T01440144
KBHK 230651Z AUTO 24008KT 10SM OVC100 16/16 A2977 RMK AO2 SLP061 T01560156 402390139
KBHK 230551Z AUTO 21003KT 10SM BKN110 16/15 A2978 RMK AO2 SLP065 60000 T01560150 10194 20139 50001
KBHK 230451Z AUTO 24007KT 10SM FEW090 15/15 A2979 RMK AO2 SLP070 T01500150
KBHK 230351Z AUTO 15003KT 10SM CLR 15/15 A2978 RMK AO2 SLP068 T01500150
KBHK 230251Z AUTO 25003KT 10SM FEW060 17/15 A2978 RMK AO2 SLP066 60000 T01670150 55003
KBHK 230151Z AUTO 21003KT 10SM SCT100 18/15 A2977 RMK AO2 RAE0059 SLP065 P0000 T01780150
KBHK 230051Z AUTO 26008KT 10SM -RA OVC080 17/16 A2979 RMK AO2 RAB29 SLP074 P0000 T01720156
KBHK 222351Z AUTO 22008KT 10SM SCT080 20/14 A2979 RMK AO2 SLP073 60001 T02000144 10239 20161 56012
KBHK 222251Z AUTO 23005KT 10SM FEW065 FEW080 19/15 A2980 RMK AO2 SLP076 T01940150
KBHK 222151Z AUTO 23009KT 10SM FEW033 18/16 A2980 RMK AO2 LTG DSNT NE AND E RAE46 SLP079 P0000 T01780161
KBHK 222132Z AUTO 27010KT 10SM -RA SCT033 SCT100 17/16 A2981 RMK AO2 LTG DSNT NE-SE P0000 T01670156
KBHK 222056Z AUTO 26016KT 10SM VCTS -RA FEW036 BKN070 OVC085 16/14 A2983 RMK AO2 LTG DSNT E AND SE P0000 T01610139
KBHK 222051Z AUTO 25018G27KT 10SM -RA FEW036 SCT055 BKN065 16/14 A2983 RMK AO2 PK WND 23027/2044 LTG DSNT E AND SE RAB40 SLP090 P0001 60001 T01610139 55002
KBHK 221951Z AUTO 27009G18KT 10SM CLR 23/14 A2982 RMK AO2 LTG DSNT SE AND SW SLP079 T02330144
KBHK 221851Z AUTO 26015KT 10SM FEW037 24/14 A2983 RMK AO2 LTG DSNT SE SLP083 T02390139
KBHK 221751Z AUTO 24013KT 10SM CLR 24/14 A2984 RMK AO2 LTG DSNT SE SLP081 T02390139 10239 20144 56009
KBHK 221651Z AUTO 28009KT 10SM CLR 22/15 A2984 RMK AO2 SLP088 T02220150
KBHK 221551Z AUTO 26005KT 10SM CLR 21/15 A2985 RMK AO2 SLP091 T02060150
KBHK 221451Z AUTO VRB05KT 10SM CLR 21/14 A2987 RMK AO2 SLP095 T02060144 55005
KBHK 221351Z AUTO 16004KT 10SM CLR 19/14 A2987 RMK AO2 SLP091 T01890144
KBHK 221251Z AUTO 00000KT 10SM CLR 17/15 A2987 RMK AO2 SLP095 T01670150
KBHK 221151Z AUTO 15006KT 10SM BKN060 14/13 A2988 RMK AO2 SLP100 60027 70027 T01440133 10183 20139 51001
KBHK 221051Z AUTO 14004KT 10SM OVC060 14/14 A2988 RMK AO2 SLP098 T01440139
KBHK 220951Z AUTO 00000KT 10SM BKN070 14/14 A2988 RMK AO2 SLP100 T01440144
KBHK 220851Z AUTO 00000KT 10SM SCT090 14/14 A2988 RMK AO2 RAB02E15 SLP099 P0000 60027 T01440144 56026
KBHK 220751Z AUTO 13011KT 10SM FEW060 SCT090 15/14 A2989 RMK AO2 LTG DSNT E-S RAE46 SLP102 P0014 T01500144
KBHK 220656Z AUTO 32005KT 4SM RA BR FEW055 SCT070 OVC090 16/14 A2994 RMK AO2 LTG DSNT S AND SW PRESFR P0001 T01560144
KBHK 220651Z AUTO 00000KT 6SM VCTS RA BR FEW050 OVC090 16/14 A2995 RMK AO2 WSHFT 0538 LTG DSNT S AND SW SLP122 P0013 T01560144 402610111
KBHK 220553Z AUTO 26014G25KT 10SM VCTS -RA FEW043 BKN050 BKN065 18/12 A2996 RMK AO2 WSHFT 0538 LTG DSNT S AND SW P0000 T01830122
KBHK 220551Z AUTO 27016G28KT 10SM -RA SCT043 BKN050 BKN070 19/12 A2997 RMK AO2 PK WND 21034/0540 WSHFT 0536 LTG DSNT S AND SW RAB48 SLP125 P0000 60000 T01890122 10256 20167 53013
KBHK 220451Z AUTO 14009KT 10SM CLR 17/14 A2992 RMK AO2 SLP113 T01670139
KBHK 220351Z AUTO 11007KT 10SM CLR 17/14 A2992 RMK AO2 SLP116 T01670144
KBHK 220251Z AUTO 15008KT 10SM CLR 18/14 A2992 RMK AO2 SLP116 T01780139 55003
KBHK 220151Z AUTO 15010KT 10SM CLR 23/13 A2992 RMK AO2 SLP111 T02280133
KBHK 220051Z AUTO 17011KT 10SM CLR 24/12 A2993 RMK AO2 SLP117 T02440122
KBHK 212351Z AUTO 16011G21KT 10SM CLR 26/13 A2994 RMK AO2 SLP120 T02560128 10261 20233 58019